Time;durP1;ratioP1;P1;durP2;ratioP2;P2;SDS_P1;SDS_P2;PMS_P1;PMS_P2;Temp;Humidity;BMP_temperature;BMP_pressure;BME280_temperature;BME280_humidity;BME280_pressure;Samples;Min_cycle;Max_cycle;Signal;HPM_P1;HPM_P2
2021/11/13 00:00:13;;;;;;;15.75;8.35;;;3.00;99.90;;;;;;5134516;28;20027;-82
2021/11/13 00:02:39;;;;;;;16.20;8.35;;;3.00;99.90;;;;;;5135008;28;20025;-82
2021/11/13 00:05:05;;;;;;;;;;;3.10;99.90;;;;;;5134479;28;20093;-81
2021/11/13 00:07:31;;;;;;;20.17;8.35;;;3.00;99.90;;;;;;5133863;28;19908;-81
2021/11/13 00:09:57;;;;;;;;;;;3.00;99.90;;;;;;5134386;28;20028;-82
2021/11/13 00:12:23;;;;;;;15.52;9.45;;;3.00;99.90;;;;;;5152082;27;19888;-81
2021/11/13 00:14:49;;;;;;;;;;;2.90;99.90;;;;;;5135689;28;20032;-82
2021/11/13 00:17:16;;;;;;;21.48;9.88;;;2.90;99.90;;;;;;5151864;27;19915;-81
2021/11/13 00:19:43;;;;;;;18.33;8.52;;;2.80;99.90;;;;;;5131727;28;20034;-82
2021/11/13 00:22:09;;;;;;;14.63;8.45;;;2.80;99.90;;;;;;5148601;27;20039;-81
2021/11/13 00:24:36;;;;;;;;;;;2.80;99.90;;;;;;5133320;28;20127;-81
2021/11/13 00:27:04;;;;;;;21.42;13.13;;;2.90;99.90;;;;;;5132216;28;19904;-82
2021/11/13 00:29:30;;;;;;;24.13;14.60;;;3.20;99.90;;;;;;5148460;27;20042;-82
2021/11/13 00:31:55;;;;;;;;;;;3.90;99.90;;;;;;5148961;27;20044;-81
2021/11/13 00:34:21;;;;;;;22.33;13.82;;;4.50;99.90;;;;;;5136322;28;19910;-82
2021/11/13 00:36:47;;;;;;;;;;;5.00;99.90;;;;;;5152714;27;20023;-80
2021/11/13 00:39:13;;;;;;;21.73;11.90;;;5.50;99.90;;;;;;5135876;28;19907;-81
2021/11/13 00:41:39;;;;;;;22.95;14.05;;;5.80;99.90;;;;;;5154350;27;20031;-82
2021/11/13 00:44:05;;;;;;;;;;;6.00;99.90;;;;;;5137698;28;20023;-79
2021/11/13 00:46:32;;;;;;;24.15;14.85;;;6.20;99.90;;;;;;5155339;27;19929;-82
2021/11/13 00:48:57;;;;;;;23.50;15.18;;;6.30;99.90;;;;;;5138259;28;20020;-81
2021/11/13 00:51:23;;;;;;;;;;;6.40;99.90;;;;;;5136184;27;20043;-80
2021/11/13 00:53:49;;;;;;;22.60;14.30;;;6.50;99.90;;;;;;5137622;28;19904;-81
2021/11/13 00:56:15;;;;;;;;;;;6.60;99.90;;;;;;5152701;27;20096;-81
2021/11/13 00:58:41;;;;;;;21.73;13.93;;;6.70;99.90;;;;;;5132111;28;19933;-82
2021/11/13 01:01:07;;;;;;;20.33;13.60;;;6.60;99.90;;;;;;5149872;27;20027;-82
2021/11/13 01:03:34;;;;;;;;;;;6.80;99.90;;;;;;5150388;27;20023;-82
2021/11/13 01:06:00;;;;;;;22.87;13.90;;;6.90;99.90;;;;;;5133695;28;19906;-83
2021/11/13 01:08:28;;;;;;;;;;;6.90;99.90;;;;;;5149736;27;20032;-81
2021/11/13 01:10:54;;;;;;;19.58;12.07;;;7.10;99.90;;;;;;5136452;28;19904;-83
2021/11/13 01:13:22;;;;;;;;;;;7.00;99.90;;;;;;5150997;27;20039;-82
2021/11/13 01:15:48;;;;;;;22.48;13.15;;;7.00;99.90;;;;;;5132597;28;19911;-80
2021/11/13 01:18:15;;;;;;;18.90;12.25;;;6.90;99.90;;;;;;5148834;27;20008;-79
2021/11/13 01:20:41;;;;;;;22.02;13.63;;;7.00;99.90;;;;;;5149336;27;20046;-82
2021/11/13 01:23:08;;;;;;;26.98;13.75;;;7.00;99.90;;;;;;5150492;27;20035;-82
2021/11/13 01:25:34;;;;;;;;;;;7.00;99.90;;;;;;5133542;28;20047;-83
2021/11/13 01:28:00;;;;;;;27.08;15.23;;;7.00;99.90;;;;;;5135642;28;19907;-84
2021/11/13 01:30:26;;;;;;;21.88;13.55;;;7.10;99.90;;;;;;5152717;27;20020;-83
2021/11/13 01:32:52;;;;;;;;;;;7.00;99.90;;;;;;5135106;28;20025;-80
2021/11/13 01:35:21;;;;;;;35.60;18.80;;;7.00;99.90;;;;;;5132923;28;20006;-82
2021/11/13 01:37:48;;;;;;;29.40;18.25;;;7.00;99.90;;;;;;5153581;28;20091;-82
2021/11/13 01:40:16;;;;;;;37.35;20.65;;;7.10;99.90;;;;;;5152744;28;20035;-83
2021/11/13 01:42:43;;;;;;;29.85;19.20;;;7.10;99.90;;;;;;5135737;28;20028;-82
2021/11/13 01:45:11;;;;;;;38.90;21.27;;;7.20;99.90;;;;;;5150648;28;20019;-82
2021/11/13 01:47:38;;;;;;;34.28;20.75;;;7.20;99.90;;;;;;5134964;28;20043;-83
2021/11/13 01:50:26;;;;;;;32.53;19.10;;;7.30;99.90;;;;;;5150991;28;20403;-83
2021/11/13 01:52:52;;;;;;;36.90;20.35;;;7.40;99.90;;;;;;5134653;28;20031;-83
2021/11/13 01:55:21;;;;;;;31.67;19.48;;;7.30;99.90;;;;;;5151683;28;20046;-82
2021/11/13 01:57:48;;;;;;;38.40;21.23;;;7.30;99.90;;;;;;5155506;27;20011;-83
2021/11/13 02:00:32;;;;;;;33.40;19.70;;;7.30;99.90;;;;;;5156290;27;20028;-83
2021/11/13 02:02:58;;;;;;;40.42;20.33;;;7.40;99.90;;;;;;5155217;27;20008;-83
2021/11/13 02:05:24;;;;;;;32.17;20.33;;;7.30;99.90;;;;;;5155334;27;20041;-83
2021/11/13 02:07:50;;;;;;;30.73;20.35;;;7.30;99.90;;;;;;5155847;27;20095;-82
2021/11/13 02:10:16;;;;;;;;;;;7.30;99.90;;;;;;5138636;27;20019;-83
2021/11/13 02:12:42;;;;;;;35.17;20.95;;;7.30;99.90;;;;;;5139247;28;19921;-82
2021/11/13 02:15:09;;;;;;;32.78;20.08;;;7.20;99.90;;;;;;5139460;28;20067;-83
2021/11/13 02:17:35;;;;;;;34.67;20.42;;;7.10;99.90;;;;;;5139444;28;20027;-82
2021/11/13 02:20:19;;;;;;;41.78;23.67;;;7.00;99.90;;;;;;5157304;27;20024;-83
2021/11/13 02:22:46;;;;;;;36.47;21.33;;;6.80;99.90;;;;;;5142161;28;20015;-83
2021/11/13 02:25:21;;;;;;;30.83;19.33;;;6.50;99.90;;;;;;5158542;27;20000;-82
2021/11/13 02:27:47;;;;;;;33.95;20.02;;;6.30;99.90;;;;;;5142096;28;20015;-84
2021/11/13 02:30:13;;;;;;;28.55;17.20;;;6.00;99.90;;;;;;5157491;27;20012;-82
2021/11/13 02:32:40;;;;;;;26.25;15.98;;;5.70;99.90;;;;;;5157576;27;20036;-82
2021/11/13 02:35:09;;;;;;;22.42;14.43;;;5.40;99.90;;;;;;5157797;27;20032;-83
2021/11/13 02:37:39;;;;;;;20.50;13.25;;;5.10;99.90;;;;;;5158039;27;20019;-84
2021/11/13 02:40:07;;;;;;;20.58;12.82;;;5.00;99.90;;;;;;5157899;27;20023;-82
2021/11/13 02:42:34;;;;;;;21.13;11.88;;;4.70;99.90;;;;;;5157362;27;20062;-84
2021/11/13 02:45:01;;;;;;;19.33;12.43;;;4.40;99.90;;;;;;5158730;27;20417;-82
2021/11/13 02:47:27;;;;;;;21.92;13.38;;;4.30;99.90;;;;;;5158778;27;20012;-82
2021/11/13 02:49:53;;;;;;;;;;;4.20;99.90;;;;;;5159648;27;20023;-84
2021/11/13 02:52:19;;;;;;;18.85;11.35;;;4.00;99.90;;;;;;5157863;27;19926;-83
2021/11/13 02:54:45;;;;;;;;;;;3.80;99.90;;;;;;5159307;27;20028;-83
2021/11/13 02:57:12;;;;;;;16.27;10.98;;;3.80;99.90;;;;;;5142208;28;19906;-84
2021/11/13 02:59:49;;;;;;;20.63;11.38;;;3.60;99.90;;;;;;5159244;27;20020;-84
2021/11/13 03:02:15;;;;;;;17.98;10.63;;;3.50;99.90;;;;;;5142378;28;20027;-83
2021/11/13 03:04:42;;;;;;;16.55;9.45;;;3.50;99.90;;;;;;5142156;28;20028;-84
2021/11/13 03:07:11;;;;;;;13.63;7.72;;;3.40;99.90;;;;;;5141659;28;20004;-81
2021/11/13 03:09:39;;;;;;;13.52;7.85;;;3.10;99.90;;;;;;5157974;27;20016;-83
2021/11/13 03:12:05;;;;;;;15.65;8.20;;;3.10;99.90;;;;;;5158553;27;20008;-83
2021/11/13 03:14:31;;;;;;;11.00;6.63;;;3.00;99.90;;;;;;5157246;27;20016;-82
2021/11/13 03:17:00;;;;;;;;;;;2.90;99.90;;;;;;5122917;27;20032;-82
2021/11/13 03:19:26;;;;;;;12.30;6.93;;;2.80;99.90;;;;;;5135663;27;19895;-81
2021/11/13 03:21:52;;;;;;;;;;;2.70;99.90;;;;;;5119777;28;20036;-82
2021/11/13 03:24:18;;;;;;;23.13;9.65;;;2.60;99.90;;;;;;5126661;27;20394;-82
2021/11/13 03:26:45;;;;;;;15.25;8.48;;;2.60;99.90;;;;;;5112122;27;20032;-82
2021/11/13 03:29:21;;;;;;;14.13;8.73;;;2.50;99.90;;;;;;5114713;28;20417;-82
2021/11/13 03:31:47;;;;;;;17.48;8.43;;;2.40;99.90;;;;;;5109954;27;20569;-80
2021/11/13 03:34:13;;;;;;;;;;;2.40;99.90;;;;;;5137458;27;20072;-81
2021/11/13 03:36:40;;;;;;;18.55;10.13;;;2.40;99.90;;;;;;5106595;28;19991;-80
2021/11/13 03:39:06;;;;;;;20.25;10.38;;;2.30;99.90;;;;;;5115498;27;20032;-81
2021/11/13 03:41:33;;;;;;;16.58;9.05;;;2.40;99.90;;;;;;5117850;28;20055;-82
2021/11/13 03:43:59;;;;;;;14.82;8.82;;;2.40;99.90;;;;;;5137390;28;20016;-82
2021/11/13 03:46:25;;;;;;;15.65;9.38;;;2.10;99.90;;;;;;5136819;28;20019;-82
2021/11/13 03:48:51;;;;;;;;;;;2.20;99.90;;;;;;5136188;28;20054;-81
2021/11/13 03:51:19;;;;;;;21.90;9.23;;;2.20;99.90;;;;;;5136051;28;19887;-83
2021/11/13 03:53:45;;;;;;;18.90;10.38;;;2.00;99.90;;;;;;5136516;28;20024;-82
2021/11/13 03:56:10;;;;;;;;;;;2.10;99.90;;;;;;5120915;28;20047;-81
2021/11/13 03:58:37;;;;;;;17.67;10.60;;;1.90;99.90;;;;;;5137243;28;19910;-83
2021/11/13 04:01:03;;;;;;;28.83;14.68;;;1.80;99.90;;;;;;5136446;28;20083;-82
2021/11/13 04:03:29;;;;;;;25.73;13.90;;;1.80;99.90;;;;;;5137188;28;20010;-83
2021/11/13 04:05:55;;;;;;;29.90;17.20;;;1.80;99.90;;;;;;5137449;28;20027;-81
2021/11/13 04:08:21;;;;;;;;;;;1.80;99.90;;;;;;5119880;28;20049;-83
2021/11/13 04:10:47;;;;;;;31.55;17.48;;;1.80;99.90;;;;;;5136659;28;19888;-82
2021/11/13 04:13:13;;;;;;;;;;;1.70;99.90;;;;;;5136516;28;20024;-83
2021/11/13 04:15:39;;;;;;;35.53;21.60;;;1.80;99.90;;;;;;5137103;28;19919;-82
2021/11/13 04:18:05;;;;;;;34.50;19.92;;;1.80;99.90;;;;;;5136579;28;20031;-83
2021/11/13 04:20:31;;;;;;;32.70;20.75;;;1.80;99.90;;;;;;5136534;28;20026;-83
2021/11/13 04:22:57;;;;;;;;;;;1.70;99.90;;;;;;5119837;28;20016;-83
2021/11/13 04:25:23;;;;;;;44.53;26.38;;;1.60;99.90;;;;;;5135345;28;19904;-82
2021/11/13 04:27:50;;;;;;;;;;;1.70;99.90;;;;;;5137010;28;20027;-83
2021/11/13 04:30:17;;;;;;;41.93;24.67;;;1.70;99.90;;;;;;5135570;28;19914;-82
2021/11/13 04:32:45;;;;;;;42.30;25.00;;;2.00;99.90;;;;;;5135510;28;20031;-83
2021/11/13 04:37:56;;;;;;;45.53;26.83;;;1.70;99.90;;;;;;5136336;28;20019;-82
2021/11/13 04:40:27;;;;;;;40.28;23.20;;;1.70;99.90;;;;;;5134881;28;20023;-83
2021/11/13 04:42:53;;;;;;;42.75;23.10;;;1.80;99.90;;;;;;5136382;28;20031;-83
2021/11/13 04:45:19;;;;;;;;;;;1.70;99.90;;;;;;5119249;28;20035;-82
2021/11/13 04:47:45;;;;;;;31.42;19.38;;;1.60;99.90;;;;;;5136023;28;19904;-82
2021/11/13 04:50:17;;;;;;;40.60;20.23;;;1.60;99.90;;;;;;5136691;28;20011;-82
2021/11/13 04:52:43;;;;;;;38.63;21.00;;;1.60;99.90;;;;;;5118700;28;20042;-83
2021/11/13 04:55:09;;;;;;;36.70;20.52;;;1.40;99.90;;;;;;5135996;28;20047;-83
2021/11/13 04:57:35;;;;;;;;;;;1.50;99.90;;;;;;5119370;28;20035;-83
2021/11/13 05:00:01;;;;;;;36.90;20.92;;;1.10;99.90;;;;;;5118708;28;19892;-83
2021/11/13 05:02:27;;;;;;;37.22;22.17;;;1.20;99.90;;;;;;5135154;28;20019;-82
2021/11/13 05:04:55;;;;;;;;;;;1.00;99.90;;;;;;5137419;28;20020;-83
2021/11/13 05:07:23;;;;;;;160.75;26.40;;;0.90;99.90;;;;;;5118935;28;19908;-81
2021/11/13 05:09:50;;;;;;;214.18;32.33;;;0.70;99.90;;;;;;5118259;28;20095;-82
2021/11/13 05:12:16;;;;;;;265.50;32.25;;;0.80;99.90;;;;;;5135165;28;20092;-82
2021/11/13 05:14:42;;;;;;;148.65;35.42;;;0.60;99.90;;;;;;5118235;28;20015;-81
2021/11/13 05:17:08;;;;;;;;;;;0.60;99.90;;;;;;5135629;28;20075;-83
2021/11/13 05:19:34;;;;;;;166.07;33.03;;;0.60;99.90;;;;;;5136146;28;19899;-83
2021/11/13 05:21:59;;;;;;;;;;;0.60;99.90;;;;;;5118768;28;20032;-83
2021/11/13 05:24:25;;;;;;;88.00;33.55;;;0.50;99.90;;;;;;5134294;28;20326;-82
2021/11/13 05:26:51;;;;;;;;;;;0.50;99.90;;;;;;5136648;28;20034;-82
2021/11/13 05:29:17;;;;;;;313.35;42.88;;;0.50;99.90;;;;;;5135438;28;19935;-82
2021/11/13 05:31:43;;;;;;;272.63;45.47;;;0.50;99.90;;;;;;5117588;28;20034;-82
2021/11/13 05:34:09;;;;;;;;;;;0.60;99.90;;;;;;5135949;28;20027;-82
2021/11/13 05:36:34;;;;;;;194.60;42.20;;;0.50;99.90;;;;;;5134967;28;19906;-83
2021/11/13 05:39:00;;;;;;;;;;;0.50;99.90;;;;;;5136517;28;20100;-82
2021/11/13 05:41:26;;;;;;;294.00;40.08;;;0.50;99.90;;;;;;5136762;28;19904;-82
2021/11/13 05:43:52;;;;;;;;;;;0.30;99.90;;;;;;5137347;28;20011;-82
2021/11/13 05:46:18;;;;;;;295.45;43.08;;;0.50;99.90;;;;;;5118370;28;19904;-81
2021/11/13 05:48:44;;;;;;;;;;;0.40;99.90;;;;;;5119115;28;20031;-81
2021/11/13 05:51:10;;;;;;;153.77;40.70;;;0.40;99.90;;;;;;5134517;28;19942;-82
2021/11/13 05:53:35;;;;;;;;;;;0.40;99.90;;;;;;5135990;28;20091;-83
2021/11/13 05:56:02;;;;;;;145.13;37.45;;;0.60;99.90;;;;;;5134747;28;19911;-82
2021/11/13 05:58:27;;;;;;;91.68;37.80;;;0.60;99.90;;;;;;5118419;28;20015;-83
2021/11/13 06:00:53;;;;;;;;;;;0.70;99.90;;;;;;5135223;28;20030;-82
2021/11/13 06:03:19;;;;;;;70.80;37.88;;;0.80;99.90;;;;;;5134861;28;19908;-82
2021/11/13 06:05:45;;;;;;;;;;;0.90;99.90;;;;;;5136169;28;20035;-83
2021/11/13 06:08:11;;;;;;;65.53;36.17;;;0.80;99.90;;;;;;5134341;28;19910;-83
2021/11/13 06:10:38;;;;;;;68.90;36.25;;;0.70;99.90;;;;;;5116373;28;20023;-82
2021/11/13 06:13:04;;;;;;;64.53;35.10;;;0.80;99.90;;;;;;5117529;28;20034;-83
2021/11/13 06:15:30;;;;;;;;;;;0.90;99.90;;;;;;5135623;28;20087;-83
2021/11/13 06:17:57;;;;;;;56.70;33.22;;;1.00;99.90;;;;;;5116337;28;19907;-83
2021/11/13 06:20:23;;;;;;;67.35;39.15;;;1.30;99.90;;;;;;5117567;28;20041;-83
2021/11/13 06:22:49;;;;;;;67.93;40.50;;;1.50;99.90;;;;;;5117667;28;20038;-84
2021/11/13 06:25:15;;;;;;;;;;;1.00;99.90;;;;;;5135251;28;20030;-83
2021/11/13 06:27:42;;;;;;;61.47;36.35;;;1.20;99.90;;;;;;5134455;28;19990;-82
2021/11/13 06:30:10;;;;;;;66.72;37.35;;;1.30;99.90;;;;;;5134617;28;20041;-82
2021/11/13 06:32:37;;;;;;;58.28;36.28;;;1.30;99.90;;;;;;5134329;28;20004;-83
2021/11/13 06:35:04;;;;;;;66.88;37.03;;;1.40;99.90;;;;;;5134392;28;20391;-83
2021/11/13 06:37:30;;;;;;;86.53;42.80;;;1.50;99.90;;;;;;5135236;28;20031;-83
2021/11/13 06:39:56;;;;;;;;;;;1.60;99.90;;;;;;5135222;28;20110;-83
2021/11/13 06:42:22;;;;;;;119.18;47.10;;;1.60;99.90;;;;;;5117564;28;19921;-82
2021/11/13 06:44:48;;;;;;;;;;;1.80;99.90;;;;;;5122143;28;20030;-83
2021/11/13 06:47:17;;;;;;;104.63;45.05;;;1.80;99.90;;;;;;5138040;28;19888;-81
2021/11/13 06:49:43;;;;;;;100.72;43.55;;;2.00;99.90;;;;;;5138064;28;20075;-82
2021/11/13 06:52:09;;;;;;;;;;;2.00;99.90;;;;;;5121341;28;20007;-81
2021/11/13 06:54:34;;;;;;;108.63;44.17;;;2.30;99.90;;;;;;5137506;28;19888;-83
2021/11/13 06:57:01;;;;;;;;;;;2.20;99.90;;;;;;5120608;28;20035;-83
2021/11/13 06:59:27;;;;;;;101.35;42.88;;;2.40;99.90;;;;;;5137753;28;19904;-83
2021/11/13 07:01:53;;;;;;;96.43;44.75;;;2.50;99.90;;;;;;5138475;28;20031;-83
2021/11/13 07:04:19;;;;;;;76.20;38.25;;;2.60;99.90;;;;;;5138527;28;20038;-83
2021/11/13 07:06:45;;;;;;;;;;;2.60;99.90;;;;;;5120902;28;20089;-84
2021/11/13 07:09:11;;;;;;;67.88;35.90;;;2.60;99.90;;;;;;5137280;28;19926;-83
2021/11/13 07:11:37;;;;;;;;;;;2.70;99.90;;;;;;5121223;28;20024;-83
2021/11/13 07:14:02;;;;;;;70.30;37.00;;;2.70;99.90;;;;;;5136278;28;19900;-84
2021/11/13 07:16:28;;;;;;;;;;;2.60;99.90;;;;;;5138045;28;20020;-83
2021/11/13 07:18:54;;;;;;;73.13;37.95;;;2.60;99.90;;;;;;5136690;28;19904;-83
2021/11/13 07:21:20;;;;;;;;;;;2.70;99.90;;;;;;5120480;28;20059;-83
2021/11/13 07:23:46;;;;;;;69.80;38.45;;;2.70;99.90;;;;;;5137929;28;19904;-83
2021/11/13 07:26:14;;;;;;;65.80;35.03;;;2.70;99.90;;;;;;5138830;28;20026;-84
2021/11/13 07:28:41;;;;;;;65.43;34.13;;;2.80;99.90;;;;;;5137867;28;20023;-84
2021/11/13 07:31:09;;;;;;;62.75;34.65;;;2.80;99.90;;;;;;5120573;28;20004;-83
2021/11/13 07:33:35;;;;;;;69.07;36.00;;;2.80;99.90;;;;;;5120480;28;20027;-84
2021/11/13 07:36:02;;;;;;;;;;;2.90;99.90;;;;;;5120576;28;20079;-84
2021/11/13 07:38:28;;;;;;;69.40;33.95;;;2.90;99.90;;;;;;5138402;28;19938;-84
2021/11/13 07:40:53;;;;;;;;;;;3.00;99.90;;;;;;5121359;28;20000;-84
2021/11/13 07:43:19;;;;;;;93.57;39.50;;;3.00;99.90;;;;;;5129103;28;19912;-83
2021/11/13 07:45:45;;;;;;;;;;;3.00;99.90;;;;;;5138412;28;20091;-83
2021/11/13 07:48:12;;;;;;;84.47;40.38;;;3.00;99.90;;;;;;5120608;28;19907;-83
2021/11/13 07:50:38;;;;;;;90.07;43.22;;;3.10;99.90;;;;;;5137865;28;20015;-84
2021/11/13 07:53:05;;;;;;;91.05;44.13;;;3.20;99.90;;;;;;5120003;28;20154;-84
2021/11/13 07:55:32;;;;;;;113.70;50.05;;;3.20;99.90;;;;;;5137711;28;20015;-83
2021/11/13 07:57:57;;;;;;;89.03;44.75;;;3.10;99.90;;;;;;5119938;28;20038;-84
2021/11/13 08:00:26;;;;;;;;;;;3.10;99.90;;;;;;5139068;28;20016;-83
2021/11/13 08:02:52;;;;;;;85.25;42.63;;;3.30;99.90;;;;;;5140867;27;19892;-84
2021/11/13 08:05:20;;;;;;;;;;;3.10;99.90;;;;;;5141359;27;20024;-84
2021/11/13 08:07:49;;;;;;;96.15;42.65;;;3.30;99.90;;;;;;5140868;28;19908;-82
2021/11/13 08:10:15;;;;;;;91.00;42.08;;;3.20;99.90;;;;;;5140668;28;20008;-82
2021/11/13 08:12:41;;;;;;;94.45;42.78;;;3.30;99.90;;;;;;5123350;28;20062;-83
2021/11/13 08:15:09;;;;;;;94.03;42.40;;;3.40;99.90;;;;;;5123372;27;20031;-82
2021/11/13 08:17:35;;;;;;;108.88;48.78;;;3.30;99.90;;;;;;5140606;28;20030;-83
2021/11/13 14:51:18;;;;;;;176.00;71.07;;;4.20;99.90;;;;;;5062272;23;20074;-83
2021/11/13 14:53:46;;;;;;;401.70;153.60;;;4.20;99.90;;;;;;4984815;28;20050;-83
2021/11/13 14:56:51;;;;;;;436.65;176.07;;;4.10;99.90;;;;;;4984476;28;20134;-83
2021/11/13 15:25:37;;;;;;;124.05;48.97;;;4.20;99.90;;;;;;5010866;23;20090;-81
2021/11/13 15:28:19;;;;;;;116.30;46.58;;;4.20;99.90;;;;;;4975097;28;20057;-80
2021/11/13 15:31:08;;;;;;;219.35;81.07;;;4.20;99.90;;;;;;4980724;28;20030;-82
2021/11/13 15:54:15;;;;;;;133.10;56.85;;;4.30;99.90;;;;;;4983197;28;20049;-83
2021/11/13 16:00:34;;;;;;;122.35;50.50;;;4.30;99.90;;;;;;4962314;28;20058;-83
2021/11/13 16:03:28;;;;;;;156.07;61.60;;;4.30;99.90;;;;;;4923507;29;20012;-81
2021/11/13 16:09:36;;;;;;;148.38;58.10;;;4.20;99.90;;;;;;4883938;29;20024;-81
2021/11/13 16:15:45;;;;;;;140.25;55.88;;;4.30;99.90;;;;;;4898013;29;20055;-80
2021/11/13 16:18:11;;;;;;;132.93;53.08;;;4.30;99.90;;;;;;4904589;29;20052;-82
2021/11/13 16:28:30;;;;;;;182.85;78.05;;;4.40;99.90;;;;;;4867711;29;20053;-82
2021/11/13 16:34:02;;;;;;;159.43;64.10;;;4.30;99.90;;;;;;4910884;29;20045;-82
2021/11/13 16:36:31;;;;;;;167.27;70.40;;;4.30;99.90;;;;;;4923367;29;20055;-82
2021/11/13 16:38:57;;;;;;;138.73;56.03;;;4.40;99.90;;;;;;4906454;29;20028;-82
2021/11/13 16:41:23;;;;;;;;;;;4.40;99.90;;;;;;4907444;29;20036;-83
2021/11/13 16:43:54;;;;;;;151.75;60.25;;;4.40;99.90;;;;;;4922795;29;19927;-80
2021/11/13 16:46:22;;;;;;;156.57;64.13;;;4.40;99.90;;;;;;4922973;29;20008;-79
2021/11/13 16:48:52;;;;;;;150.07;64.53;;;4.60;99.90;;;;;;4956276;28;20032;-82
2021/11/13 16:51:28;;;;;;;152.20;62.75;;;4.50;99.90;;;;;;4961739;28;20004;-81
2021/11/13 16:53:57;;;;;;;141.32;61.00;;;4.50;99.90;;;;;;4961124;28;20023;-82
2021/11/13 16:56:25;;;;;;;144.10;56.13;;;4.50;99.90;;;;;;4929983;29;20051;-81
2021/11/13 16:58:59;;;;;;;138.43;56.40;;;4.50;99.90;;;;;;4961576;28;20051;-82
2021/11/13 17:36:14;;;;;;;112.93;42.35;;;4.40;99.90;;;;;;5301338;23;20118;-80
2021/11/13 17:38:43;;;;;;;100.93;40.83;;;4.40;99.90;;;;;;4998511;28;20055;-81
2021/11/13 17:41:09;;;;;;;101.88;44.30;;;4.30;99.90;;;;;;4983027;28;20018;-80
2021/11/13 17:43:36;;;;;;;;;;;4.30;99.90;;;;;;4983017;28;20017;-80
2021/11/13 17:46:35;;;;;;;123.70;52.53;;;4.20;99.90;;;;;;4983617;28;19929;-81
2021/11/13 17:56:07;;;;;;;113.68;45.30;;;4.40;99.90;;;;;;4948683;29;20042;-81
2021/11/13 17:59:40;;;;;;;103.10;42.53;;;4.40;99.90;;;;;;4935214;28;20035;-84
2021/11/13 18:10:13;;;;;;;102.63;45.10;;;4.50;99.90;;;;;;5148952;23;20039;-79
2021/11/13 18:12:41;;;;;;;114.32;50.78;;;4.50;99.90;;;;;;4996611;28;20043;-81
2021/11/13 18:16:21;;;;;;;111.35;52.50;;;4.50;99.90;;;;;;4966869;28;20113;-83
2021/11/13 18:19:31;;;;;;;113.28;48.85;;;4.50;99.90;;;;;;4978903;28;20079;-83
2021/11/13 18:21:58;;;;;;;117.75;46.40;;;4.50;99.90;;;;;;4960419;28;20090;-81
2021/11/13 18:24:25;;;;;;;116.07;47.70;;;4.50;99.90;;;;;;4960899;28;20011;-81
2021/11/13 18:26:58;;;;;;;114.25;47.47;;;4.60;99.90;;;;;;4975177;28;20027;-80
2021/11/13 18:32:35;;;;;;;118.90;48.80;;;4.50;99.90;;;;;;4952007;28;20034;-82
2021/11/13 18:35:06;;;;;;;120.80;52.42;;;4.70;99.90;;;;;;4978955;28;20028;-81
2021/11/13 18:37:33;;;;;;;112.75;48.85;;;4.60;99.90;;;;;;4978052;28;20028;-81
2021/11/13 18:40:04;;;;;;;112.72;51.42;;;4.50;99.90;;;;;;4982106;28;20165;-80
2021/11/13 18:42:31;;;;;;;101.38;45.70;;;4.50;99.90;;;;;;4951389;28;20019;-81
2021/11/13 18:44:58;;;;;;;130.07;51.70;;;4.50;99.90;;;;;;4966915;28;20027;-83
2021/11/13 18:54:13;;;;;;;103.38;43.03;;;4.50;99.90;;;;;;5002480;28;20029;-80
2021/11/13 18:57:43;;;;;;;94.78;39.65;;;4.50;99.90;;;;;;4994686;28;20054;-80
2021/11/13 19:22:36;;;;;;;135.55;55.95;;;4.50;99.90;;;;;;5607899;23;20032;-80
2021/11/13 19:25:21;;;;;;;134.63;55.10;;;4.50;99.90;;;;;;4965920;28;20019;-82
2021/11/13 19:28:39;;;;;;;137.45;58.78;;;4.40;99.90;;;;;;4980024;28;20015;-82
2021/11/13 19:32:07;;;;;;;134.52;56.47;;;4.50;99.90;;;;;;4934007;28;20057;-83
2021/11/13 19:34:39;;;;;;;135.85;58.75;;;4.50;99.90;;;;;;4981057;28;20021;-79
2021/11/13 19:37:10;;;;;;;124.78;53.03;;;4.50;99.90;;;;;;4979611;28;20082;-80
2021/11/13 19:40:21;;;;;;;142.85;58.30;;;4.50;99.90;;;;;;4964598;28;20012;-80
2021/11/13 19:43:12;;;;;;;142.50;56.42;;;4.50;99.90;;;;;;4949828;28;20011;-80
2021/11/13 19:49:53;;;;;;;137.18;58.25;;;4.50;99.90;;;;;;4886635;29;20110;-82
2021/11/13 19:56:21;;;;;;;128.02;55.13;;;4.60;99.90;;;;;;4982317;28;20090;-80
2021/11/13 21:17:05;;;;;;;154.38;56.92;;;4.60;99.90;;;;;;5234079;23;20050;-79
2021/11/13 21:19:33;;;;;;;145.75;57.70;;;4.50;99.90;;;;;;4982712;28;20014;-80
2021/11/13 21:22:01;;;;;;;152.05;59.45;;;4.50;99.90;;;;;;5000301;28;20042;-81
2021/11/13 21:24:29;;;;;;;145.75;58.10;;;4.60;99.90;;;;;;5000513;28;20027;-81
2021/11/13 21:27:24;;;;;;;159.30;56.47;;;4.60;99.90;;;;;;4983815;28;20015;-81
2021/11/13 21:34:01;;;;;;;154.20;57.33;;;4.60;99.90;;;;;;4983522;28;20042;-81
2021/11/13 21:37:02;;;;;;;186.77;74.75;;;4.60;99.90;;;;;;4847903;29;20034;-82
